Time,TemperatureF,DewpointF,PressureIn,WindDirection,WindDirectionDegrees,WindSpeedMPH,WindSpeedGustMPH,Humidity,HourlyPrecipIn,Conditions,Clouds,dailyrainin,SoftwareType,DateUTC
2017-09-23 00:03:00,72.1,69.0,30.05,ESE,116,0.0,0.0,90,0.00,,,0.00,weatherlink.com 1.10,2017-09-23 04:03:00,
2017-09-23 00:18:00,71.6,69.0,30.05,ESE,116,0.0,0.0,91,0.00,,,0.00,weatherlink.com 1.10,2017-09-23 04:18:00,
2017-09-23 00:33:00,71.2,69.0,30.06,ESE,116,0.0,0.0,91,0.00,,,0.00,weatherlink.com 1.10,2017-09-23 04:33:00,
2017-09-23 00:48:00,70.8,68.0,30.06,ESE,116,0.0,0.0,92,0.00,,,0.00,weatherlink.com 1.10,2017-09-23 04:48:00,
2017-09-23 01:03:00,70.6,68.0,30.06,ESE,116,0.0,0.0,92,0.00,,,0.00,weatherlink.com 1.10,2017-09-23 05:03:00,
2017-09-23 01:18:00,70.3,68.0,30.06,ESE,116,0.0,0.0,93,0.00,,,0.00,weatherlink.com 1.10,2017-09-23 05:18:00,
2017-09-23 01:33:00,70.1,68.0,30.06,ESE,116,0.0,0.0,93,0.00,,,0.00,weatherlink.com 1.10,2017-09-23 05:33:00,
2017-09-23 01:48:00,69.9,68.0,30.06,ESE,116,0.0,0.0,93,0.00,,,0.00,weatherlink.com 1.10,2017-09-23 05:48:00,
2017-09-23 02:03:00,69.6,68.0,30.06,ESE,116,0.0,0.0,93,0.00,,,0.00,weatherlink.com 1.10,2017-09-23 06:03:00,
2017-09-23 02:18:00,69.3,68.0,30.06,ESE,116,0.0,0.0,94,0.00,,,0.00,weatherlink.com 1.10,2017-09-23 06:18:00,
2017-09-23 02:48:00,68.4,67.0,30.05,ESE,116,0.0,0.0,94,0.00,,,0.00,weatherlink.com 1.10,2017-09-23 06:48:00,
2017-09-23 03:04:00,68.2,67.0,30.05,ESE,116,0.0,0.0,95,0.00,,,0.00,weatherlink.com 1.10,2017-09-23 07:04:00,
2017-09-23 03:19:00,68.1,67.0,30.05,ESE,116,0.0,0.0,95,0.00,,,0.00,weatherlink.com 1.10,2017-09-23 07:19:00,
2017-09-23 03:33:00,68.0,67.0,30.05,ESE,116,0.0,0.0,95,0.00,,,0.00,weatherlink.com 1.10,2017-09-23 07:33:00,
2017-09-23 03:49:00,67.8,66.0,30.05,ESE,116,0.0,0.0,95,0.00,,,0.00,weatherlink.com 1.10,2017-09-23 07:49:00,
2017-09-23 04:04:00,67.5,66.0,30.05,ESE,116,0.0,0.0,95,0.00,,,0.00,weatherlink.com 1.10,2017-09-23 08:04:00,
2017-09-23 04:19:00,67.3,66.0,30.06,ESE,116,0.0,0.0,95,0.00,,,0.00,weatherlink.com 1.10,2017-09-23 08:19:00,
2017-09-23 04:34:00,67.0,66.0,30.06,ESE,116,0.0,0.0,95,0.00,,,0.00,weatherlink.com 1.10,2017-09-23 08:34:00,
2017-09-23 04:49:00,66.9,66.0,30.06,ESE,116,0.0,0.0,96,0.00,,,0.00,weatherlink.com 1.10,2017-09-23 08:49:00,
2017-09-23 05:04:00,66.8,65.0,30.06,ESE,116,0.0,0.0,95,0.00,,,0.00,weatherlink.com 1.10,2017-09-23 09:04:00,
2017-09-23 05:19:00,66.7,66.0,30.06,ESE,116,0.0,0.0,96,0.00,,,0.00,weatherlink.com 1.10,2017-09-23 09:19:00,
2017-09-23 05:34:00,66.4,65.0,30.06,ESE,116,0.0,0.0,96,0.00,,,0.00,weatherlink.com 1.10,2017-09-23 09:34:00,
2017-09-23 05:49:00,66.1,65.0,30.07,ESE,116,0.0,0.0,96,0.00,,,0.00,weatherlink.com 1.10,2017-09-23 09:49:00,
2017-09-23 06:04:00,66.0,65.0,30.07,ESE,116,0.0,0.0,96,0.00,,,0.00,weatherlink.com 1.10,2017-09-23 10:04:00,
2017-09-23 06:19:00,65.9,65.0,30.08,ESE,116,0.0,0.0,96,0.00,,,0.00,weatherlink.com 1.10,2017-09-23 10:19:00,
2017-09-23 06:34:00,66.0,65.0,30.08,ESE,116,0.0,0.0,96,0.00,,,0.00,weatherlink.com 1.10,2017-09-23 10:34:00,
2017-09-23 06:49:00,65.8,65.0,30.08,ESE,116,0.0,0.0,96,0.00,,,0.00,weatherlink.com 1.10,2017-09-23 10:49:00,
2017-09-23 07:04:00,65.7,65.0,30.09,ESE,116,0.0,0.0,96,0.00,,,0.00,weatherlink.com 1.10,2017-09-23 11:04:00,
2017-09-23 07:19:00,65.6,65.0,30.09,ESE,116,0.0,0.0,96,0.00,,,0.00,weatherlink.com 1.10,2017-09-23 11:19:00,
2017-09-23 07:34:00,65.4,64.0,30.09,ESE,116,0.0,1.0,96,0.00,,,0.00,weatherlink.com 1.10,2017-09-23 11:34:00,
2017-09-23 07:49:00,65.3,64.0,30.10,ESE,116,0.0,0.0,96,0.00,,,0.00,weatherlink.com 1.10,2017-09-23 11:49:00,
2017-09-23 08:05:00,65.4,64.0,30.11,ESE,116,0.0,0.0,96,0.00,,,0.00,weatherlink.com 1.10,2017-09-23 12:05:00,
2017-09-23 08:19:00,65.6,65.0,30.11,ESE,116,0.0,0.0,96,0.00,,,0.00,weatherlink.com 1.10,2017-09-23 12:19:00,
2017-09-23 08:34:00,65.6,65.0,30.11,ESE,116,1.0,1.0,96,0.00,,,0.00,weatherlink.com 1.10,2017-09-23 12:34:00,
2017-09-23 08:49:00,66.3,66.0,30.12,ESE,116,0.0,1.0,97,0.00,,,0.00,weatherlink.com 1.10,2017-09-23 12:49:00,
2017-09-23 09:04:00,68.1,67.0,30.12,WNW,285,0.0,1.0,97,0.00,,,0.00,weatherlink.com 1.10,2017-09-23 13:04:00,
2017-09-23 09:19:00,70.2,69.0,30.12,WNW,286,0.0,1.0,94,0.00,,,0.00,weatherlink.com 1.10,2017-09-23 13:19:00,
2017-09-23 09:34:00,71.5,68.0,30.13,NW,312,0.0,2.0,88,0.00,,,0.00,weatherlink.com 1.10,2017-09-23 13:34:00,
2017-09-23 09:49:00,72.6,69.0,30.13,NNE,31,0.0,2.0,87,0.00,,,0.00,weatherlink.com 1.10,2017-09-23 13:49:00,
2017-09-23 10:04:00,74.3,70.0,30.13,NNE,31,0.0,2.0,86,0.00,,,0.00,weatherlink.com 1.10,2017-09-23 14:04:00,
2017-09-23 10:19:00,76.0,71.0,30.12,NE,36,0.0,2.0,83,0.00,,,0.00,weatherlink.com 1.10,2017-09-23 14:19:00,
2017-09-23 10:34:00,77.7,71.0,30.12,NNE,25,1.0,2.0,79,0.00,,,0.00,weatherlink.com 1.10,2017-09-23 14:34:00,
2017-09-23 10:49:00,78.9,72.0,30.12,SE,129,1.0,3.0,78,0.00,,,0.00,weatherlink.com 1.10,2017-09-23 14:49:00,
2017-09-23 11:04:00,80.5,72.0,30.12,ENE,69,1.0,4.0,75,0.00,,,0.00,weatherlink.com 1.10,2017-09-23 15:04:00,
2017-09-23 11:20:00,81.9,72.0,30.12,SSE,149,0.0,3.0,71,0.00,,,0.00,weatherlink.com 1.10,2017-09-23 15:20:00,
2017-09-23 11:35:00,83.0,71.0,30.12,East,84,0.0,4.0,67,0.00,,,0.00,weatherlink.com 1.10,2017-09-23 15:35:00,
2017-09-23 11:50:00,83.5,71.0,30.12,East,80,2.0,3.0,66,0.00,,,0.00,weatherlink.com 1.10,2017-09-23 15:50:00,
2017-09-23 12:05:00,83.9,70.0,30.11,ENE,69,0.0,4.0,64,0.00,,,0.00,weatherlink.com 1.10,2017-09-23 16:05:00,
2017-09-23 12:20:00,85.0,70.0,30.11,SSE,162,0.0,4.0,62,0.00,,,0.00,weatherlink.com 1.10,2017-09-23 16:20:00,
2017-09-23 12:35:00,86.0,70.0,30.10,ENE,78,2.0,4.0,59,0.00,,,0.00,weatherlink.com 1.10,2017-09-23 16:35:00,
2017-09-23 12:50:00,85.9,69.0,30.11,ESE,117,1.0,5.0,58,0.00,,,0.00,weatherlink.com 1.10,2017-09-23 16:50:00,
2017-09-23 13:05:00,86.8,69.0,30.11,East,91,1.0,4.0,55,0.00,,,0.00,weatherlink.com 1.10,2017-09-23 17:05:00,
2017-09-23 13:20:00,87.2,69.0,30.10,SE,142,1.0,5.0,54,0.00,,,0.00,weatherlink.com 1.10,2017-09-23 17:20:00,
2017-09-23 13:35:00,87.5,68.0,30.09,East,100,1.0,6.0,53,0.00,,,0.00,weatherlink.com 1.10,2017-09-23 17:35:00,
2017-09-23 13:50:00,87.3,69.0,30.09,SE,144,3.0,5.0,54,0.00,,,0.00,weatherlink.com 1.10,2017-09-23 17:50:00,
2017-09-23 14:05:00,87.5,68.0,30.09,ENE,74,0.0,5.0,52,0.00,,,0.00,weatherlink.com 1.10,2017-09-23 18:05:00,
2017-09-23 14:20:00,88.0,68.0,30.08,SE,128,3.0,4.0,51,0.00,,,0.00,weatherlink.com 1.10,2017-09-23 18:20:00,
2017-09-23 14:35:00,87.8,68.0,30.08,East,84,5.0,5.0,52,0.00,,,0.00,weatherlink.com 1.10,2017-09-23 18:35:00,